Time;durP1;ratioP1;P1;durP2;ratioP2;P2;SDS_P1;SDS_P2;PMS_P1;PMS_P2;Temp;Humidity;BMP_temperature;BMP_pressure;BME280_temperature;BME280_humidity;BME280_pressure;Samples;Min_cycle;Max_cycle;Signal;HPM_P1;HPM_P2
2021/08/04 00:00:21;;;;;;;2.30;2.10;;;15.50;99.90;15.00;96666.00;;;;5012658;28;20234;-87
2021/08/04 00:03:10;;;;;;;6.00;1.70;;;15.50;99.90;15.00;96668.00;;;;5013002;28;20709;-86
2021/08/04 00:05:59;;;;;;;1.73;1.57;;;15.40;99.90;15.10;96669.00;;;;5013377;28;20209;-86
2021/08/04 00:08:48;;;;;;;4.53;2.27;;;15.40;99.90;15.10;96652.00;;;;5002277;28;20674;-87
2021/08/04 00:11:37;;;;;;;2.80;1.73;;;15.40;99.90;15.10;96648.00;;;;4991679;28;20203;-86
2021/08/04 00:14:28;;;;;;;2.10;1.90;;;15.40;99.90;15.00;96660.00;;;;4993447;28;20211;-87
2021/08/04 00:17:17;;;;;;;2.83;1.90;;;15.40;99.90;15.10;96654.00;;;;4993147;28;20724;-87
2021/08/04 00:20:08;;;;;;;2.30;1.83;;;15.40;99.90;15.00;96656.00;;;;4992447;28;20229;-85
2021/08/04 00:22:57;;;;;;;2.10;1.80;;;15.40;99.90;15.00;96666.00;;;;4992358;28;20285;-85
2021/08/04 00:25:47;;;;;;;3.53;1.70;;;15.40;99.90;15.00;96668.00;;;;4992477;28;20345;-84
2021/08/04 00:28:36;;;;;;;2.27;2.07;;;15.40;99.90;15.00;96654.00;;;;4992500;28;20206;-85
2021/08/04 00:31:26;;;;;;;2.50;2.23;;;15.40;99.90;15.00;96646.00;;;;4991457;28;20686;-87
2021/08/04 00:34:15;;;;;;;2.10;1.67;;;15.40;99.90;15.00;96647.00;;;;4991713;28;20231;-85
2021/08/04 00:37:04;;;;;;;3.50;1.87;;;15.40;99.90;14.90;96642.00;;;;4992028;28;20199;-84
2021/08/04 00:39:53;;;;;;;4.23;2.23;;;15.30;99.90;14.90;96649.00;;;;4990493;28;20217;-86
2021/08/04 00:42:43;;;;;;;4.53;2.40;;;15.30;99.90;14.80;96649.00;;;;4991785;28;20199;-86
2021/08/04 00:45:32;;;;;;;3.83;2.50;;;15.30;99.90;14.80;96648.00;;;;4991181;28;20219;-87
2021/08/04 00:48:23;;;;;;;6.67;2.93;;;15.30;99.90;14.90;96642.00;;;;4990603;28;20206;-87
2021/08/04 00:51:12;;;;;;;2.50;2.30;;;15.30;99.90;14.90;96632.00;;;;4992117;28;20210;-87
2021/08/04 00:54:04;;;;;;;2.20;2.00;;;15.20;99.90;14.80;96631.00;;;;4991838;28;20214;-87
2021/08/04 00:56:53;;;;;;;3.43;1.50;;;15.20;99.90;14.80;96634.00;;;;4992530;28;20207;-87
2021/08/04 00:59:42;;;;;;;3.13;1.80;;;15.20;99.90;14.80;96628.00;;;;4992625;28;20814;-86
2021/08/04 01:02:38;;;;;;;2.73;2.30;;;15.20;99.90;14.90;96611.00;;;;4991416;28;20575;-86
2021/08/04 01:05:38;;;;;;;3.97;2.67;;;15.20;99.90;14.90;96619.00;;;;4990775;28;20226;-85
2021/08/04 01:08:32;;;;;;;2.27;2.10;;;15.20;99.90;14.80;96628.00;;;;4998133;28;20198;-85
2021/08/04 01:11:22;;;;;;;2.03;1.93;;;15.20;99.90;14.70;96622.00;;;;5009993;28;20202;-86
2021/08/04 01:14:16;;;;;;;2.77;2.57;;;15.20;99.90;14.60;96636.00;;;;5010587;28;20276;-87
2021/08/04 01:17:06;;;;;;;3.20;2.30;;;15.20;99.90;14.60;96638.00;;;;5010773;28;20213;-86
2021/08/04 01:20:04;;;;;;;2.87;2.63;;;15.10;99.90;14.80;96634.00;;;;5011109;28;20209;-87
2021/08/04 01:23:16;;;;;;;2.77;2.40;;;15.10;99.90;14.90;96627.00;;;;5010818;28;20625;-86
2021/08/04 01:26:20;;;;;;;3.00;2.60;;;15.10;99.90;14.90;96624.00;;;;5010334;28;20248;-86
2021/08/04 01:29:13;;;;;;;2.13;1.97;;;15.20;99.90;14.90;96628.00;;;;5010807;28;20202;-86
2021/08/04 01:32:03;;;;;;;2.77;1.97;;;15.20;99.90;14.90;96631.00;;;;5009546;28;20194;-86
2021/08/04 01:34:55;;;;;;;2.90;2.10;;;15.20;99.90;14.90;96622.00;;;;5011726;28;20226;-88
2021/08/04 01:37:44;;;;;;;2.63;2.30;;;15.20;99.90;14.90;96624.00;;;;5010899;28;20208;-87
2021/08/04 01:40:35;;;;;;;3.50;3.00;;;15.20;99.90;14.90;96618.00;;;;5011238;28;20264;-90
2021/08/04 01:43:27;;;;;;;2.80;2.60;;;15.20;99.90;14.90;96619.00;;;;5011932;28;20205;-88
2021/08/04 01:46:17;;;;;;;5.47;2.57;;;15.20;99.90;14.80;96607.00;;;;5010766;28;20305;-88
2021/08/04 01:49:07;;;;;;;2.90;2.50;;;15.20;99.90;14.80;96616.00;;;;5009404;28;20282;-87
2021/08/04 01:51:58;;;;;;;3.13;2.20;;;15.20;99.90;14.80;96620.00;;;;5010482;28;20702;-89
2021/08/04 01:54:49;;;;;;;2.43;2.23;;;15.20;99.90;14.80;96612.00;;;;5010173;28;20252;-88
2021/08/04 01:57:39;;;;;;;4.00;2.23;;;15.20;99.90;14.80;96624.00;;;;5010728;28;20248;-88
2021/08/04 02:00:30;;;;;;;4.20;2.63;;;15.10;99.90;14.80;96627.00;;;;5010604;28;20272;-88
2021/08/04 02:03:19;;;;;;;4.90;2.53;;;15.20;99.90;14.90;96619.00;;;;5009395;28;20674;-88
2021/08/04 02:06:14;;;;;;;4.13;2.27;;;15.20;99.90;14.80;96614.00;;;;5009093;28;20194;-88
2021/08/04 02:09:09;;;;;;;3.63;2.70;;;15.20;99.90;14.90;96619.00;;;;4997311;28;20732;-86
2021/08/04 02:12:04;;;;;;;2.30;2.10;;;15.20;99.90;14.80;96619.00;;;;4988900;28;20199;-87
2021/08/04 02:14:58;;;;;;;4.20;2.80;;;15.20;99.90;14.90;96615.00;;;;4990835;28;20939;-88
2021/08/04 02:17:55;;;;;;;2.47;2.27;;;15.20;99.90;14.90;96616.00;;;;4993911;28;20199;-87
2021/08/04 02:20:46;;;;;;;4.80;2.77;;;15.20;99.90;14.90;96616.00;;;;4993387;28;20293;-88
2021/08/04 02:23:39;;;;;;;3.10;2.80;;;15.20;99.90;14.70;96608.00;;;;4994190;28;20272;-87
2021/08/04 02:26:29;;;;;;;2.97;2.43;;;15.20;99.90;14.60;96601.00;;;;4994298;28;20214;-87
2021/08/04 02:29:20;;;;;;;7.00;2.50;;;15.20;99.90;14.70;96611.00;;;;4993264;28;20199;-87
2021/08/04 02:32:10;;;;;;;4.00;2.53;;;15.10;99.90;14.70;96614.00;;;;4994202;28;20689;-87
2021/08/04 02:35:01;;;;;;;2.50;2.30;;;15.10;99.90;14.70;96624.00;;;;4994024;28;20214;-87
2021/08/04 02:37:50;;;;;;;3.03;2.67;;;15.10;99.90;14.50;96615.00;;;;4993137;28;20442;-87
2021/08/04 02:40:40;;;;;;;7.83;4.57;;;15.10;99.90;14.60;96624.00;;;;4993751;28;20207;-86
2021/08/04 02:43:30;;;;;;;4.00;3.20;;;15.00;99.90;14.70;96618.00;;;;4993971;28;20662;-87
2021/08/04 02:46:20;;;;;;;3.27;2.97;;;15.10;99.90;14.70;96627.00;;;;4993880;28;20209;-87
2021/08/04 02:49:09;;;;;;;5.87;2.77;;;15.10;99.90;14.60;96632.00;;;;4993596;28;20284;-86
2021/08/04 02:52:00;;;;;;;3.67;3.20;;;15.10;99.90;14.60;96629.00;;;;4993965;28;20217;-87
2021/08/04 02:54:50;;;;;;;3.43;3.13;;;15.00;99.90;14.70;96623.00;;;;4992877;28;20223;-86
2021/08/04 02:57:39;;;;;;;3.17;2.63;;;15.00;99.90;14.70;96626.00;;;;4994091;28;20205;-88
2021/08/04 03:00:28;;;;;;;4.20;3.47;;;15.00;99.90;14.60;96614.00;;;;4993131;28;20207;-87
2021/08/04 03:03:17;;;;;;;5.23;3.67;;;15.00;99.90;14.70;96628.00;;;;4992080;28;20254;-88
2021/08/04 03:06:06;;;;;;;3.57;2.87;;;15.00;99.90;14.60;96627.00;;;;4993387;28;20250;-88
2021/08/04 03:08:57;;;;;;;4.03;3.00;;;15.00;99.90;14.70;96628.00;;;;5005567;28;20221;-88
2021/08/04 03:11:46;;;;;;;4.30;2.93;;;15.00;99.90;14.70;96618.00;;;;5013037;28;20264;-88
2021/08/04 03:14:35;;;;;;;6.43;2.93;;;15.00;99.90;14.70;96629.00;;;;5013218;28;20237;-88
2021/08/04 03:17:24;;;;;;;2.80;2.50;;;15.00;99.90;14.70;96628.00;;;;5012538;28;20575;-87
2021/08/04 03:20:14;;;;;;;3.03;2.70;;;15.00;99.90;14.60;96641.00;;;;5012709;28;20202;-87
2021/08/04 03:23:03;;;;;;;3.83;2.60;;;15.00;99.90;14.50;96644.00;;;;5012591;28;20230;-88
2021/08/04 03:25:54;;;;;;;3.17;2.77;;;15.00;99.90;14.60;96643.00;;;;5012999;28;20241;-89
2021/08/04 03:28:43;;;;;;;3.23;2.93;;;15.00;99.90;14.60;96631.00;;;;5013125;28;20198;-89
2021/08/04 03:31:32;;;;;;;3.33;3.00;;;14.90;99.90;14.60;96639.00;;;;5011690;28;20202;-89
2021/08/04 03:34:21;;;;;;;3.23;2.97;;;14.90;99.90;14.60;96637.00;;;;5011462;28;20221;-88
2021/08/04 03:37:10;;;;;;;2.77;2.57;;;14.90;99.90;14.60;96631.00;;;;5012888;28;20272;-89
2021/08/04 03:40:00;;;;;;;13.30;2.53;;;14.90;99.90;14.60;96629.00;;;;5012564;28;20684;-87
2021/08/04 03:42:50;;;;;;;6.43;3.60;;;14.90;99.90;14.50;96634.00;;;;5013293;28;20222;-89
2021/08/04 03:45:40;;;;;;;3.33;2.83;;;14.90;99.90;14.50;96629.00;;;;5013397;28;20755;-88
2021/08/04 03:48:29;;;;;;;5.03;2.70;;;14.90;99.90;14.50;96640.00;;;;5013212;28;20202;-89
2021/08/04 03:51:18;;;;;;;3.60;2.97;;;14.90;99.90;14.50;96636.00;;;;5012305;28;20317;-87
2021/08/04 03:54:07;;;;;;;3.73;2.73;;;14.90;99.90;14.50;96638.00;;;;5012094;28;20376;-88
2021/08/04 03:56:56;;;;;;;4.40;2.90;;;14.80;99.90;14.50;96638.00;;;;5012063;28;20202;-89
2021/08/04 03:59:47;;;;;;;4.13;3.47;;;14.90;99.90;14.50;96646.00;;;;5012630;28;20985;-89
2021/08/04 04:02:36;;;;;;;3.60;2.90;;;14.80;99.90;14.50;96650.00;;;;5011366;28;20233;-88
2021/08/04 04:05:25;;;;;;;7.07;2.87;;;14.80;99.90;14.60;96644.00;;;;5011392;28;20717;-89
2021/08/04 04:08:14;;;;;;;5.30;3.13;;;14.80;99.90;14.60;96644.00;;;;5004735;28;20211;-89
2021/08/04 04:11:04;;;;;;;3.33;3.03;;;14.90;99.90;14.70;96636.00;;;;4991960;28;20261;-89
2021/08/04 04:13:53;;;;;;;3.07;2.60;;;14.90;99.90;14.70;96642.00;;;;4991788;28;20280;-89
2021/08/04 04:16:43;;;;;;;3.10;2.80;;;14.90;99.90;14.60;96648.00;;;;5002692;28;20293;-89
2021/08/04 04:19:32;;;;;;;2.60;2.40;;;15.00;99.90;14.60;96647.00;;;;5011137;28;20194;-89
2021/08/04 04:22:22;;;;;;;3.87;3.17;;;15.00;99.90;14.60;96638.00;;;;5011587;28;20760;-88
2021/08/04 04:25:13;;;;;;;4.97;3.43;;;15.00;99.90;14.60;96637.00;;;;5012584;28;20647;-88
2021/08/04 04:28:02;;;;;;;7.70;3.17;;;14.90;99.90;14.60;96632.00;;;;5011736;28;20253;-89
2021/08/04 04:30:51;;;;;;;3.77;3.27;;;15.00;99.90;14.70;96639.00;;;;5011506;28;20634;-88
2021/08/04 04:33:41;;;;;;;3.70;3.40;;;15.00;99.90;14.50;96647.00;;;;5010888;28;20222;-89
2021/08/04 04:36:31;;;;;;;6.07;3.73;;;15.00;99.90;14.40;96654.00;;;;5010885;28;20202;-89
2021/08/04 04:39:20;;;;;;;5.17;3.43;;;15.00;99.90;14.50;96638.00;;;;5010781;28;20673;-89
2021/08/04 04:42:09;;;;;;;3.37;3.07;;;14.90;99.90;14.60;96648.00;;;;5010420;28;20612;-89
2021/08/04 04:44:58;;;;;;;4.00;3.60;;;15.00;99.90;14.70;96656.00;;;;5011275;28;20228;-89
2021/08/04 04:47:47;;;;;;;5.03;3.33;;;15.00;99.90;14.80;96657.00;;;;5011427;28;20249;-89
2021/08/04 04:50:38;;;;;;;4.57;3.33;;;15.10;99.90;14.80;96664.00;;;;5011367;28;20719;-89
2021/08/04 04:53:27;;;;;;;3.50;3.20;;;15.10;99.90;14.80;96662.00;;;;5008265;28;20263;-89
2021/08/04 04:56:16;;;;;;;3.30;2.97;;;15.20;99.90;15.00;96671.00;;;;5011432;28;20693;-89
2021/08/04 04:59:05;;;;;;;4.40;3.50;;;15.20;99.90;15.00;96669.00;;;;5017886;28;20254;-89
2021/08/04 05:01:54;;;;;;;6.50;2.90;;;15.30;99.90;15.10;96672.00;;;;5009946;28;20693;-90
2021/08/04 05:04:44;;;;;;;3.87;3.53;;;15.30;99.90;15.20;96677.00;;;;5010779;28;20283;-89
2021/08/04 05:07:34;;;;;;;3.43;3.03;;;15.40;99.90;15.20;96695.00;;;;5010372;28;20198;-89
2021/08/04 05:10:24;;;;;;;3.47;3.17;;;15.50;99.90;15.30;96683.00;;;;4991407;28;20693;-90
2021/08/04 05:13:13;;;;;;;4.37;3.70;;;15.50;99.90;15.40;96691.00;;;;4993359;28;20280;-88
2021/08/04 05:16:02;;;;;;;5.53;3.50;;;15.50;99.90;15.40;96692.00;;;;4991213;28;20286;-89
2021/08/04 05:18:51;;;;;;;4.50;3.97;;;15.60;99.90;15.50;96676.00;;;;4991234;28;20199;-89
2021/08/04 05:21:40;;;;;;;5.87;3.30;;;15.70;99.90;15.50;96684.00;;;;4993902;28;20206;-90
2021/08/04 05:24:31;;;;;;;3.93;3.23;;;15.70;99.90;15.50;96691.00;;;;4991105;28;20698;-90
2021/08/04 05:27:20;;;;;;;6.30;3.20;;;15.80;99.90;15.50;96703.00;;;;4990573;28;20206;-91
2021/08/04 05:30:12;;;;;;;6.67;3.70;;;15.80;99.90;15.50;96703.00;;;;4991628;28;20194;-89
2021/08/04 05:33:01;;;;;;;3.80;3.03;;;15.80;99.90;15.70;96700.00;;;;5004430;28;20678;-89
2021/08/04 05:35:51;;;;;;;5.17;2.97;;;15.80;99.90;15.80;96701.00;;;;5011380;28;20686;-90
2021/08/04 05:38:40;;;;;;;5.33;3.40;;;16.00;99.90;15.80;96705.00;;;;5010328;28;20210;-91
2021/08/04 05:41:31;;;;;;;4.10;3.67;;;16.00;99.90;15.80;96708.00;;;;5010398;28;20221;-90
2021/08/04 05:44:20;;;;;;;5.63;3.77;;;16.10;99.90;15.80;96705.00;;;;5010737;28;20233;-89
2021/08/04 05:47:09;;;;;;;4.63;3.67;;;16.00;99.90;15.80;96713.00;;;;5010778;28;20233;-90
2021/08/04 05:49:59;;;;;;;5.57;4.50;;;16.00;99.90;15.80;96711.00;;;;5009963;28;20209;-89
2021/08/04 05:52:48;;;;;;;9.07;5.53;;;16.00;99.90;15.70;96717.00;;;;5010396;28;20681;-90
2021/08/04 05:55:37;;;;;;;3.87;2.97;;;16.00;99.90;15.70;96726.00;;;;5010078;28;20280;-89
2021/08/04 05:58:27;;;;;;;4.80;3.50;;;16.00;99.90;15.70;96715.00;;;;5009536;28;20202;-89
2021/08/04 06:01:16;;;;;;;4.17;2.93;;;16.00;99.90;15.70;96718.00;;;;5009551;28;20677;-90
2021/08/04 06:04:06;;;;;;;4.40;3.67;;;16.00;99.90;15.90;96720.00;;;;5009497;28;20226;-89
2021/08/04 06:06:55;;;;;;;4.80;3.73;;;16.00;99.90;15.90;96724.00;;;;5008319;28;20684;-89
2021/08/04 06:09:44;;;;;;;5.70;3.53;;;16.10;99.90;15.90;96735.00;;;;5010429;28;20194;-91
2021/08/04 06:12:33;;;;;;;6.90;3.87;;;16.10;99.90;15.80;96733.00;;;;5009450;28;20209;-90
2021/08/04 06:15:24;;;;;;;6.10;4.00;;;16.20;99.90;15.90;96733.00;;;;5009635;28;20308;-90
2021/08/04 06:18:13;;;;;;;4.37;3.33;;;16.10;99.90;16.00;96739.00;;;;5010028;28;20194;-90
2021/08/04 06:21:02;;;;;;;4.13;3.70;;;16.20;99.90;16.00;96730.00;;;;5009527;28;20198;-89
2021/08/04 06:23:51;;;;;;;3.80;3.50;;;16.20;99.90;16.00;96725.00;;;;5009277;28;20308;-91
2021/08/04 06:26:40;;;;;;;4.70;4.30;;;16.20;99.90;15.90;96728.00;;;;5008484;28;20202;-89
2021/08/04 06:29:30;;;;;;;6.57;3.40;;;16.20;99.90;16.00;96734.00;;;;5010312;28;20198;-89
2021/08/04 06:32:20;;;;;;;5.53;3.67;;;16.20;99.90;15.90;96736.00;;;;5010205;28;20202;-90
2021/08/04 06:35:11;;;;;;;6.53;3.70;;;16.20;99.90;16.10;96734.00;;;;5009482;28;20226;-90
2021/08/04 06:38:00;;;;;;;5.60;3.47;;;16.20;99.90;16.00;96730.00;;;;5009676;28;20621;-90
2021/08/04 06:40:49;;;;;;;7.53;4.13;;;16.30;99.90;16.10;96727.00;;;;5008952;28;20198;-90
2021/08/04 06:43:38;;;;;;;6.03;3.87;;;16.30;99.90;16.20;96739.00;;;;5010448;28;20222;-89
2021/08/04 06:46:35;;;;;;;4.17;3.77;;;16.30;99.90;16.30;96746.00;;;;5011352;28;20210;-90
2021/08/04 06:49:26;;;;;;;4.87;3.40;;;16.40;99.90;16.30;96746.00;;;;5011918;28;20252;-89
2021/08/04 06:52:15;;;;;;;4.30;3.60;;;16.40;99.90;16.30;96752.00;;;;5010434;28;20209;-89
2021/08/04 06:55:05;;;;;;;4.90;3.83;;;16.50;99.90;16.50;96755.00;;;;5005641;28;20640;-89
2021/08/04 06:57:54;;;;;;;6.17;3.60;;;16.50;99.90;16.50;96756.00;;;;5000166;28;20694;-88
2021/08/04 07:00:43;;;;;;;4.23;3.63;;;16.60;99.90;16.60;96769.00;;;;4993539;28;20843;-88
2021/08/04 07:03:35;;;;;;;8.43;4.07;;;16.60;99.90;16.60;96765.00;;;;4993266;28;20235;-89
2021/08/04 07:06:25;;;;;;;4.53;4.07;;;16.70;99.90;16.70;96773.00;;;;5005474;28;20199;-88
2021/08/04 07:09:14;;;;;;;4.60;3.93;;;16.80;99.90;16.80;96785.00;;;;5007227;28;20198;-88
2021/08/04 07:12:05;;;;;;;7.30;4.37;;;16.80;99.90;16.50;96794.00;;;;5001125;28;20666;-87
2021/08/04 07:14:54;;;;;;;4.20;3.73;;;16.80;99.90;16.50;96795.00;;;;5004747;28;20222;-88
2021/08/04 07:17:45;;;;;;;4.17;3.73;;;16.80;99.90;16.70;96793.00;;;;5003915;28;20213;-88
2021/08/04 07:20:34;;;;;;;6.40;3.17;;;16.90;99.90;16.80;96791.00;;;;5002503;28;20199;-87
2021/08/04 07:23:25;;;;;;;6.13;4.20;;;16.90;99.90;16.90;96804.00;;;;5001509;28;20690;-87
2021/08/04 07:26:14;;;;;;;4.03;3.63;;;16.90;99.90;16.90;96788.00;;;;5002666;28;20287;-87
2021/08/04 07:29:04;;;;;;;6.47;4.57;;;17.00;99.90;16.90;96791.00;;;;5013219;28;20263;-88
2021/08/04 07:31:53;;;;;;;5.43;3.90;;;17.00;99.90;17.00;96787.00;;;;5012195;28;20202;-86
2021/08/04 07:34:42;;;;;;;5.93;3.40;;;17.10;99.90;17.10;96789.00;;;;5011973;28;20261;-87
2021/08/04 07:37:33;;;;;;;5.27;4.10;;;17.10;99.90;17.10;96779.00;;;;5012333;28;20205;-87
2021/08/04 07:40:25;;;;;;;6.33;3.20;;;17.20;99.90;17.40;96778.00;;;;5002759;28;20233;-87
2021/08/04 07:43:14;;;;;;;4.67;4.27;;;17.30;99.90;17.60;96785.00;;;;4999697;28;20216;-87
2021/08/04 07:46:03;;;;;;;3.90;3.40;;;17.50;99.90;17.80;96777.00;;;;5002019;28;20261;-87
2021/08/04 07:48:52;;;;;;;4.10;3.23;;;17.60;99.90;17.90;96783.00;;;;5001173;28;20203;-88
2021/08/04 07:51:41;;;;;;;3.60;3.20;;;17.80;99.90;18.00;96779.00;;;;4988305;28;20229;-86
2021/08/04 07:54:30;;;;;;;4.30;3.53;;;17.90;99.90;18.10;96777.00;;;;5005343;28;20310;-87
2021/08/04 07:57:21;;;;;;;4.17;3.07;;;18.00;99.90;18.10;96781.00;;;;5002044;28;20576;-87
2021/08/04 08:00:12;;;;;;;4.60;3.73;;;18.10;99.90;18.00;96778.00;;;;5003664;28;20206;-87
2021/08/04 08:03:02;;;;;;;4.53;3.50;;;18.20;99.90;18.10;96780.00;;;;5006015;28;20700;-87
2021/08/04 08:05:54;;;;;;;4.03;3.57;;;18.10;99.90;18.20;96773.00;;;;5002816;28;20658;-88
2021/08/04 08:08:43;;;;;;;3.40;3.10;;;18.20;99.90;18.20;96771.00;;;;5001763;28;20197;-88
2021/08/04 08:11:32;;;;;;;5.30;3.23;;;18.20;99.90;18.40;96769.00;;;;5003508;28;20268;-87
2021/08/04 08:14:23;;;;;;;5.00;3.70;;;18.30;99.90;18.60;96763.00;;;;4999179;28;20215;-89
2021/08/04 08:17:12;;;;;;;3.93;3.53;;;18.50;99.90;18.80;96764.00;;;;4999630;28;20198;-88
2021/08/04 08:20:01;;;;;;;4.33;3.47;;;18.60;99.90;19.10;96759.00;;;;5004522;28;20190;-88
2021/08/04 08:22:51;;;;;;;5.07;3.40;;;18.80;99.90;19.20;96746.00;;;;5000302;28;20217;-88
2021/08/04 08:25:41;;;;;;;3.23;2.93;;;19.00;99.90;19.30;96760.00;;;;5001491;28;20242;-89
2021/08/04 08:28:33;;;;;;;5.40;3.30;;;19.20;99.90;19.10;96750.00;;;;5004002;28;20198;-88
2021/08/04 08:31:23;;;;;;;5.97;3.17;;;19.20;99.90;19.10;96761.00;;;;5003006;28;20882;-90
2021/08/04 08:34:12;;;;;;;4.83;3.47;;;19.20;99.90;18.80;96761.00;;;;5000148;28;20223;-89
2021/08/04 08:37:04;;;;;;;5.33;3.13;;;19.20;99.90;18.70;96775.00;;;;5000011;28;20210;-89
2021/08/04 08:39:54;;;;;;;3.70;3.20;;;19.00;99.90;18.50;96770.00;;;;5001578;28;20205;-89
2021/08/04 08:42:47;;;;;;;6.30;3.40;;;18.90;99.90;18.30;96771.00;;;;5001690;28;20203;-89
2021/08/04 08:45:36;;;;;;;4.70;3.17;;;18.90;99.90;18.20;96783.00;;;;5004879;28;20225;-89
2021/08/04 08:48:29;;;;;;;5.57;3.73;;;18.70;99.90;18.40;96767.00;;;;5001706;28;20193;-89
2021/08/04 08:51:20;;;;;;;4.47;3.17;;;18.70;99.90;18.30;96770.00;;;;5006527;28;20260;-90
2021/08/04 08:54:12;;;;;;;3.53;2.90;;;18.60;99.90;18.30;96764.00;;;;5013092;28;20232;-90
2021/08/04 08:57:01;;;;;;;3.17;2.70;;;18.50;99.90;18.10;96769.00;;;;5020557;28;20569;-90
2021/08/04 08:59:50;;;;;;;6.03;2.70;;;18.60;99.90;18.40;96770.00;;;;5024468;28;20248;-90
2021/08/04 09:02:43;;;;;;;5.50;3.13;;;18.60;99.90;18.40;96780.00;;;;5004210;28;20191;-91
2021/08/04 09:05:49;;;;;;;6.63;3.43;;;18.60;99.90;18.40;96778.00;;;;4995221;28;20233;-90
2021/08/04 09:08:39;;;;;;;8.57;3.53;;;18.60;99.90;18.50;96781.00;;;;5011391;28;20209;-91
2021/08/04 09:11:28;;;;;;;3.53;3.23;;;18.50;99.90;18.50;96784.00;;;;5011513;28;20197;-91
2021/08/04 09:14:26;;;;;;;4.23;2.80;;;18.60;99.90;18.60;96780.00;;;;5005487;28;20243;-89
2021/08/04 09:17:17;;;;;;;3.67;3.37;;;18.60;99.90;18.60;96785.00;;;;5007133;28;20209;-90
2021/08/04 09:20:08;;;;;;;3.43;2.90;;;18.70;99.90;18.70;96784.00;;;;4999740;23;20240;-84
2021/08/04 09:23:03;;;;;;;4.53;2.80;;;18.80;99.90;18.80;96769.00;;;;5054532;28;20203;-83
2021/08/04 09:26:09;;;;;;;2.97;2.63;;;18.80;99.90;18.80;96768.00;;;;5054490;28;20234;-83
2021/08/04 09:29:01;;;;;;;3.30;2.90;;;18.80;99.90;19.00;96771.00;;;;5054151;28;20557;-82
2021/08/04 09:31:52;;;;;;;2.80;2.40;;;18.90;99.90;19.10;96770.00;;;;5039034;28;20204;-83
2021/08/04 09:34:42;;;;;;;5.23;3.20;;;19.00;99.90;18.90;96769.00;;;;5046998;28;20208;-83
2021/08/04 09:37:30;;;;;;;2.73;2.40;;;19.00;99.90;18.90;96766.00;;;;5047392;28;20213;-83
2021/08/04 09:40:22;;;;;;;3.40;2.60;;;19.00;99.90;18.90;96773.00;;;;5048309;28;20694;-84
2021/08/04 09:43:11;;;;;;;3.07;2.77;;;19.00;99.90;18.70;96771.00;;;;5046346;28;20211;-83
2021/08/04 09:46:00;;;;;;;5.40;2.40;;;18.90;99.90;18.80;96768.00;;;;5047023;28;20231;-84
2021/08/04 09:48:49;;;;;;;2.87;2.17;;;18.90;99.90;18.80;96763.00;;;;5044327;28;20709;-83
2021/08/04 09:51:38;;;;;;;3.40;2.03;;;18.90;99.90;18.60;96763.00;;;;5047469;28;20211;-84
2021/08/04 09:54:38;;;;;;;2.00;1.77;;;18.90;99.90;18.20;96771.00;;;;5046837;28;20597;-84
2021/08/04 09:57:42;;;;;;;1.97;1.87;;;18.70;99.90;18.00;96780.00;;;;5041892;28;20196;-83
2021/08/04 10:00:31;;;;;;;2.10;1.70;;;18.50;99.90;17.90;96763.00;;;;5047611;28;20223;-83
2021/08/04 10:03:20;;;;;;;2.17;1.97;;;18.40;99.90;17.70;96773.00;;;;5028099;28;20218;-84
2021/08/04 10:06:21;;;;;;;2.17;1.97;;;18.30;99.90;17.80;96768.00;;;;5027198;28;20220;-84
2021/08/04 10:09:17;;;;;;;2.60;1.57;;;18.10;99.90;17.80;96765.00;;;;5057489;28;20223;-83
2021/08/04 10:12:13;;;;;;;2.10;1.90;;;18.10;99.90;17.80;96767.00;;;;5071018;28;20200;-84
2021/08/04 10:15:04;;;;;;;2.93;1.90;;;18.10;99.90;17.80;96762.00;;;;5066631;28;20223;-83
2021/08/04 10:17:54;;;;;;;2.73;2.17;;;18.00;99.90;17.90;96763.00;;;;5065125;28;20509;-84
2021/08/04 10:20:42;;;;;;;2.30;2.10;;;18.00;99.90;17.90;96767.00;;;;5050606;28;20228;-84
2021/08/04 10:23:33;;;;;;;2.00;1.90;;;18.00;99.90;18.00;96760.00;;;;5046435;28;20212;-84
2021/08/04 10:26:22;;;;;;;3.23;2.20;;;18.00;99.90;18.10;96761.00;;;;5047984;28;20220;-84
2021/08/04 10:29:12;;;;;;;2.10;1.90;;;18.10;99.90;18.30;96761.00;;;;5027587;28;20194;-84
2021/08/04 10:32:02;;;;;;;8.40;4.80;;;18.10;99.90;18.50;96758.00;;;;5039817;28;20205;-85
2021/08/04 10:34:54;;;;;;;1.90;1.80;;;18.30;99.90;18.80;96762.00;;;;5054839;28;20274;-85
2021/08/04 10:37:45;;;;;;;3.57;2.23;;;18.50;99.90;19.10;96748.00;;;;5071245;28;20590;-83
2021/08/04 10:40:33;;;;;;;2.87;2.67;;;18.70;99.90;19.40;96750.00;;;;5070518;28;20273;-84
2021/08/04 10:43:41;;;;;;;7.67;1.87;;;18.90;99.90;19.40;96759.00;;;;5069165;28;20207;-82
2021/08/04 10:46:39;;;;;;;2.30;2.10;;;19.20;99.90;19.40;96757.00;;;;5071029;28;20354;-85
2021/08/04 10:49:35;;;;;;;3.50;2.00;;;19.30;99.90;19.50;96757.00;;;;5070018;28;20267;-84
2021/08/04 10:52:24;;;;;;;2.30;2.10;;;19.40;99.90;19.80;96747.00;;;;5069161;28;20200;-82
2021/08/04 10:55:14;;;;;;;1.60;1.50;;;19.50;99.90;20.00;96753.00;;;;5059492;28;20220;-83
2021/08/04 10:58:11;;;;;;;2.07;1.50;;;19.70;99.90;20.30;96743.00;;;;5048071;28;20207;-84
2021/08/04 11:01:24;;;;;;;1.90;1.80;;;19.90;99.90;20.60;96734.00;;;;5047693;28;20220;-84
2021/08/04 11:04:14;;;;;;;3.60;2.50;;;20.20;99.90;21.00;96740.00;;;;5036575;28;20219;-82
2021/08/04 11:07:17;;;;;;;2.90;2.33;;;20.50;99.90;20.90;96748.00;;;;5050142;28;20242;-82
2021/08/04 11:10:07;;;;;;;2.43;1.90;;;20.70;99.90;20.90;96743.00;;;;5049594;28;20668;-84
2021/08/04 11:12:56;;;;;;;2.07;1.87;;;20.80;99.90;20.90;96734.00;;;;5049396;28;20201;-85
2021/08/04 11:15:45;;;;;;;3.87;2.10;;;20.80;99.90;20.80;96740.00;;;;5049593;28;20231;-85
2021/08/04 11:19:02;;;;;;;4.03;1.70;;;20.90;99.90;20.40;96726.00;;;;5050038;28;20201;-85
2021/08/04 11:22:17;;;;;;;2.90;1.93;;;20.90;99.90;20.20;96730.00;;;;5049595;28;20192;-85
2021/08/04 11:25:08;;;;;;;2.30;2.10;;;20.80;99.90;19.50;96727.00;;;;5049548;28;20209;-85
2021/08/04 11:28:33;;;;;;;2.83;1.97;;;20.40;99.90;19.40;96725.00;;;;5049475;28;20196;-86
2021/08/04 11:31:23;;;;;;;2.43;1.80;;;20.20;99.90;19.40;96723.00;;;;5049552;28;20204;-86
2021/08/04 11:34:29;;;;;;;2.83;2.33;;;20.00;99.90;19.30;96721.00;;;;5048190;28;20240;-85
2021/08/04 11:37:20;;;;;;;3.00;2.13;;;19.80;99.90;19.50;96717.00;;;;5047572;28;20270;-85
2021/08/04 11:40:10;;;;;;;2.30;2.03;;;19.80;99.90;19.30;96715.00;;;;5050540;28;20229;-85
2021/08/04 11:42:59;;;;;;;3.10;2.20;;;19.70;99.90;19.30;96714.00;;;;5049031;28;20208;-85
2021/08/04 11:45:48;;;;;;;6.47;2.23;;;19.70;99.90;19.30;96712.00;;;;5049222;28;20201;-86
2021/08/04 11:48:50;;;;;;;4.30;2.30;;;19.60;99.90;19.40;96707.00;;;;5049580;28;20207;-85
2021/08/04 11:51:46;;;;;;;3.07;2.73;;;19.60;99.90;19.60;96701.00;;;;5040960;28;20200;-85
2021/08/04 11:54:42;;;;;;;2.77;2.03;;;19.60;99.90;19.90;96674.00;;;;5030971;28;20197;-85
2021/08/04 11:57:34;;;;;;;6.10;2.13;;;19.80;99.90;20.40;96676.00;;;;5041823;28;20220;-86
2021/08/04 12:00:28;;;;;;;2.60;1.90;;;20.00;99.90;20.80;96672.00;;;;5049804;28;20835;-85
2021/08/04 12:03:20;;;;;;;2.20;1.80;;;20.30;99.90;20.70;96678.00;;;;5030477;28;20720;-86
2021/08/04 12:06:16;;;;;;;5.57;2.00;;;20.50;99.90;20.90;96671.00;;;;5045938;28;20208;-86
2021/08/04 12:09:20;;;;;;;7.17;2.53;;;20.70;99.90;20.50;96690.00;;;;5050125;28;20196;-86
2021/08/04 12:12:16;;;;;;;3.03;1.93;;;20.70;99.90;20.60;96686.00;;;;5049386;28;20200;-86
2021/08/04 12:15:15;;;;;;;2.07;1.97;;;20.70;99.90;20.60;96687.00;;;;5048248;28;20200;-86
2021/08/04 12:18:06;;;;;;;2.80;1.83;;;20.70;99.90;20.70;96686.00;;;;5049176;28;20235;-86
2021/08/04 12:20:54;;;;;;;2.47;2.27;;;20.70;99.90;20.70;96683.00;;;;5049158;28;20220;-85
2021/08/04 12:23:43;;;;;;;3.30;2.57;;;20.70;99.90;20.60;96675.00;;;;5048783;28;20204;-86
2021/08/04 12:26:44;;;;;;;3.43;2.17;;;20.70;99.90;20.20;96672.00;;;;5049029;28;20207;-85
2021/08/04 12:29:35;;;;;;;3.13;2.17;;;20.70;99.90;19.90;96682.00;;;;5048964;28;20220;-85
2021/08/04 12:32:29;;;;;;;3.07;1.77;;;20.40;99.90;19.80;96687.00;;;;5039349;28;20203;-85
2021/08/04 12:35:24;;;;;;;2.10;1.63;;;20.30;99.90;19.50;96686.00;;;;5048354;28;20212;-86
2021/08/04 12:38:17;;;;;;;6.13;2.43;;;20.10;99.90;19.70;96681.00;;;;5048527;28;20200;-85
2021/08/04 12:41:09;;;;;;;2.60;2.00;;;20.00;99.90;19.90;96679.00;;;;5049789;28;20220;-85